sensor_id;sensor_type;location;lat;lon;timestamp;pressure;altitude;pressure_sealevel;temperature;humidity
72677;BME280;60755;51.374;10.662;2023-07-13T00:01:32;97066.44;;;15.08;83.98
72677;BME280;60755;51.374;10.662;2023-07-13T00:03:59;97073.28;;;15.14;86.28
72677;BME280;60755;51.374;10.662;2023-07-13T00:06:28;97075.13;;;15.19;86.43
72677;BME280;60755;51.374;10.662;2023-07-13T00:08:58;97072.50;;;15.14;84.75
72677;BME280;60755;51.374;10.662;2023-07-13T00:11:26;97069.59;;;15.10;86.15
72677;BME280;60755;51.374;10.662;2023-07-13T00:13:53;97075.44;;;15.02;83.68
72677;BME280;60755;51.374;10.662;2023-07-13T00:16:20;97076.75;;;14.89;85.26
72677;BME280;60755;51.374;10.662;2023-07-13T00:18:48;97085.50;;;14.85;86.50
72677;BME280;60755;51.374;10.662;2023-07-13T00:21:15;97088.91;;;14.90;86.36
72677;BME280;60755;51.374;10.662;2023-07-13T00:23:44;97094.47;;;14.83;85.66
72677;BME280;60755;51.374;10.662;2023-07-13T00:26:11;97088.94;;;14.80;84.90
72677;BME280;60755;51.374;10.662;2023-07-13T00:28:39;97083.66;;;14.80;85.46
72677;BME280;60755;51.374;10.662;2023-07-13T00:31:08;97088.13;;;14.90;84.91
72677;BME280;60755;51.374;10.662;2023-07-13T00:33:35;97090.50;;;14.91;85.50
72677;BME280;60755;51.374;10.662;2023-07-13T00:36:03;97078.59;;;14.89;83.91
72677;BME280;60755;51.374;10.662;2023-07-13T00:38:31;97090.78;;;14.90;82.55
72677;BME280;60755;51.374;10.662;2023-07-13T00:40:59;97091.59;;;14.85;82.98
72677;BME280;60755;51.374;10.662;2023-07-13T00:43:28;97094.75;;;14.92;83.59
72677;BME280;60755;51.374;10.662;2023-07-13T00:46:24;97102.16;;;15.00;82.74
72677;BME280;60755;51.374;10.662;2023-07-13T00:48:53;97107.16;;;15.07;83.94
72677;BME280;60755;51.374;10.662;2023-07-13T00:51:29;97110.03;;;15.36;80.69
72677;BME280;60755;51.374;10.662;2023-07-13T00:54:03;97098.91;;;15.44;81.22
72677;BME280;60755;51.374;10.662;2023-07-13T00:56:33;97097.91;;;15.09;81.47
72677;BME280;60755;51.374;10.662;2023-07-13T00:59:02;97092.59;;;15.15;85.42
72677;BME280;60755;51.374;10.662;2023-07-13T01:01:31;97090.75;;;15.15;84.87
72677;BME280;60755;51.374;10.662;2023-07-13T01:03:58;97087.88;;;14.86;82.05
72677;BME280;60755;51.374;10.662;2023-07-13T01:06:26;97090.78;;;14.74;82.81
72677;BME280;60755;51.374;10.662;2023-07-13T01:08:53;97091.84;;;14.63;83.28
72677;BME280;60755;51.374;10.662;2023-07-13T01:11:21;97089.72;;;14.55;82.33
72677;BME280;60755;51.374;10.662;2023-07-13T01:13:50;97092.09;;;14.51;87.27
72677;BME280;60755;51.374;10.662;2023-07-13T01:16:24;97100.06;;;14.62;88.16
72677;BME280;60755;51.374;10.662;2023-07-13T01:18:51;97102.94;;;14.55;86.61
72677;BME280;60755;51.374;10.662;2023-07-13T01:21:20;97097.38;;;14.51;85.57
72677;BME280;60755;51.374;10.662;2023-07-13T01:23:47;97100.31;;;14.55;86.37
72677;BME280;60755;51.374;10.662;2023-07-13T01:26:14;97094.75;;;14.57;84.38
72677;BME280;60755;51.374;10.662;2023-07-13T01:28:42;97101.63;;;14.63;88.66
72677;BME280;60755;51.374;10.662;2023-07-13T01:31:10;97100.31;;;14.60;84.66
72677;BME280;60755;51.374;10.662;2023-07-13T01:33:37;97099.53;;;14.70;85.73
72677;BME280;60755;51.374;10.662;2023-07-13T01:36:05;97093.44;;;14.85;85.26
72677;BME280;60755;51.374;10.662;2023-07-13T01:38:35;97106.91;;;15.03;86.71
72677;BME280;60755;51.374;10.662;2023-07-13T01:41:02;97100.03;;;15.07;85.66
72677;BME280;60755;51.374;10.662;2023-07-13T01:43:29;97099.78;;;15.04;84.82
72677;BME280;60755;51.374;10.662;2023-07-13T01:45:56;97098.94;;;15.24;84.47
72677;BME280;60755;51.374;10.662;2023-07-13T01:48:23;97099.47;;;15.16;86.30
72677;BME280;60755;51.374;10.662;2023-07-13T01:50:50;97101.09;;;15.11;86.05
72677;BME280;60755;51.374;10.662;2023-07-13T01:53:17;97099.25;;;14.97;83.91
72677;BME280;60755;51.374;10.662;2023-07-13T01:55:46;97098.44;;;14.66;84.37
72677;BME280;60755;51.374;10.662;2023-07-13T01:58:14;97098.91;;;14.42;83.66
72677;BME280;60755;51.374;10.662;2023-07-13T02:00:41;97101.03;;;14.30;84.10
72677;BME280;60755;51.374;10.662;2023-07-13T02:03:08;97100.47;;;14.18;85.00
72677;BME280;60755;51.374;10.662;2023-07-13T02:05:35;97092.53;;;14.18;85.99
72677;BME280;60755;51.374;10.662;2023-07-13T02:08:03;97093.31;;;14.08;85.22
72677;BME280;60755;51.374;10.662;2023-07-13T02:10:30;97096.75;;;14.04;86.16
72677;BME280;60755;51.374;10.662;2023-07-13T02:12:59;97098.59;;;14.08;88.69
72677;BME280;60755;51.374;10.662;2023-07-13T02:15:26;97085.88;;;14.00;88.19
72677;BME280;60755;51.374;10.662;2023-07-13T02:17:53;97091.41;;;13.93;88.55
72677;BME280;60755;51.374;10.662;2023-07-13T02:20:19;97098.25;;;13.84;87.15
72677;BME280;60755;51.374;10.662;2023-07-13T02:22:46;97087.41;;;13.81;87.59
72677;BME280;60755;51.374;10.662;2023-07-13T02:25:13;97091.34;;;13.73;88.29
72677;BME280;60755;51.374;10.662;2023-07-13T02:27:41;97089.47;;;13.68;88.06
72677;BME280;60755;51.374;10.662;2023-07-13T02:30:11;97084.72;;;13.65;87.29
72677;BME280;60755;51.374;10.662;2023-07-13T02:32:38;97080.22;;;13.66;87.63
72677;BME280;60755;51.374;10.662;2023-07-13T02:35:05;97076.00;;;13.65;87.65
72677;BME280;60755;51.374;10.662;2023-07-13T02:37:32;97086.13;;;13.93;92.87
72677;BME280;60755;51.374;10.662;2023-07-13T02:39:59;97079.72;;;13.74;91.36
72677;BME280;60755;51.374;10.662;2023-07-13T02:42:26;97077.84;;;13.64;90.84
72677;BME280;60755;51.374;10.662;2023-07-13T02:44:53;97073.84;;;13.62;92.95
72677;BME280;60755;51.374;10.662;2023-07-13T02:47:21;97079.09;;;13.52;93.00
72677;BME280;60755;51.374;10.662;2023-07-13T02:49:48;97079.22;;;13.87;92.88
72677;BME280;60755;51.374;10.662;2023-07-13T02:52:16;97077.34;;;13.78;91.23
72677;BME280;60755;51.374;10.662;2023-07-13T02:54:43;97087.25;;;13.45;91.05
72677;BME280;60755;51.374;10.662;2023-07-13T02:57:10;97080.81;;;13.26;93.66
72677;BME280;60755;51.374;10.662;2023-07-13T02:59:37;97082.53;;;13.10;92.49
72677;BME280;60755;51.374;10.662;2023-07-13T03:02:04;97083.59;;;13.09;93.85
72677;BME280;60755;51.374;10.662;2023-07-13T03:04:32;97084.56;;;12.98;93.82
72677;BME280;60755;51.374;10.662;2023-07-13T03:07:00;97085.03;;;12.89;95.25
72677;BME280;60755;51.374;10.662;2023-07-13T03:09:34;97089.97;;;12.81;93.31
72677;BME280;60755;51.374;10.662;2023-07-13T03:12:05;97092.88;;;12.79;93.28
72677;BME280;60755;51.374;10.662;2023-07-13T03:14:33;97088.19;;;12.86;94.28
72677;BME280;60755;51.374;10.662;2023-07-13T03:17:03;97096.09;;;12.86;92.69
72677;BME280;60755;51.374;10.662;2023-07-13T03:19:35;97101.69;;;12.95;93.81
72677;BME280;60755;51.374;10.662;2023-07-13T03:22:03;97110.19;;;13.02;92.56
72677;BME280;60755;51.374;10.662;2023-07-13T03:24:32;97106.38;;;13.20;95.15
72677;BME280;60755;51.374;10.662;2023-07-13T03:27:01;97109.59;;;13.27;94.62
72677;BME280;60755;51.374;10.662;2023-07-13T03:29:28;97109.06;;;13.30;94.73
72677;BME280;60755;51.374;10.662;2023-07-13T03:31:55;97108.00;;;13.31;91.29
72677;BME280;60755;51.374;10.662;2023-07-13T03:34:23;97111.22;;;13.33;92.17
72677;BME280;60755;51.374;10.662;2023-07-13T03:36:53;97121.78;;;13.38;91.91
72677;BME280;60755;51.374;10.662;2023-07-13T03:39:21;97128.22;;;13.53;90.21
72677;BME280;60755;51.374;10.662;2023-07-13T03:41:54;97120.69;;;13.87;87.65
72677;BME280;60755;51.374;10.662;2023-07-13T03:44:22;97125.91;;;14.39;85.05
72677;BME280;60755;51.374;10.662;2023-07-13T03:46:53;97127.06;;;14.84;82.81
72677;BME280;60755;51.374;10.662;2023-07-13T03:49:20;97132.81;;;15.37;80.54
72677;BME280;60755;51.374;10.662;2023-07-13T03:51:47;97139.66;;;15.69;78.29
72677;BME280;60755;51.374;10.662;2023-07-13T03:54:15;97139.66;;;15.63;81.31
72677;BME280;60755;51.374;10.662;2023-07-13T03:56:42;97138.63;;;15.49;81.41
72677;BME280;60755;51.374;10.662;2023-07-13T03:59:09;97148.47;;;16.18;80.29
72677;BME280;60755;51.374;10.662;2023-07-13T04:01:38;97139.63;;;16.83;76.86
72677;BME280;60755;51.374;10.662;2023-07-13T04:04:05;97146.34;;;17.38;71.18
72677;BME280;60755;51.374;10.662;2023-07-13T04:06:32;97141.31;;;17.89;68.21
72677;BME280;60755;51.374;10.662;2023-07-13T04:09:01;97146.38;;;18.10;67.95
72677;BME280;60755;51.374;10.662;2023-07-13T04:11:31;97156.16;;;18.76;63.26
72677;BME280;60755;51.374;10.662;2023-07-13T04:13:59;97162.28;;;18.95;65.83
72677;BME280;60755;51.374;10.662;2023-07-13T04:16:27;97156.66;;;19.90;61.35
72677;BME280;60755;51.374;10.662;2023-07-13T04:18:54;97163.25;;;19.78;63.87
72677;BME280;60755;51.374;10.662;2023-07-13T04:21:26;97158.13;;;20.23;62.94
72677;BME280;60755;51.374;10.662;2023-07-13T04:23:53;97159.09;;;20.41;63.04
72677;BME280;60755;51.374;10.662;2023-07-13T04:26:20;97160.94;;;20.90;59.05
72677;BME280;60755;51.374;10.662;2023-07-13T04:28:50;97153.47;;;21.01;60.17
72677;BME280;60755;51.374;10.662;2023-07-13T04:31:17;97161.69;;;20.46;58.98
72677;BME280;60755;51.374;10.662;2023-07-13T04:33:44;97151.56;;;20.57;60.64
72677;BME280;60755;51.374;10.662;2023-07-13T04:36:12;97150.09;;;20.87;58.93
72677;BME280;60755;51.374;10.662;2023-07-13T04:38:39;97150.63;;;20.98;59.36
72677;BME280;60755;51.374;10.662;2023-07-13T04:41:08;97156.81;;;21.07;58.24
72677;BME280;60755;51.374;10.662;2023-07-13T04:43:35;97149.13;;;21.28;59.95
72677;BME280;60755;51.374;10.662;2023-07-13T04:46:05;97154.59;;;21.85;59.17
72677;BME280;60755;51.374;10.662;2023-07-13T04:48:33;97139.50;;;22.80;55.17
72677;BME280;60755;51.374;10.662;2023-07-13T04:51:01;97144.06;;;24.08;52.49
72677;BME280;60755;51.374;10.662;2023-07-13T04:53:28;97156.28;;;25.19;49.32
72677;BME280;60755;51.374;10.662;2023-07-13T04:55:56;97152.50;;;25.89;47.89
72677;BME280;60755;51.374;10.662;2023-07-13T04:58:24;97151.22;;;25.62;49.43
72677;BME280;60755;51.374;10.662;2023-07-13T05:00:51;97152.47;;;25.20;48.77
72677;BME280;60755;51.374;10.662;2023-07-13T05:03:20;97149.53;;;23.44;52.11
72677;BME280;60755;51.374;10.662;2023-07-13T05:05:55;97151.03;;;24.60;51.79
72677;BME280;60755;51.374;10.662;2023-07-13T05:08:22;97147.69;;;25.50;50.20
72677;BME280;60755;51.374;10.662;2023-07-13T05:10:49;97147.72;;;25.62;48.71
72677;BME280;60755;51.374;10.662;2023-07-13T05:13:16;97155.03;;;24.95;50.54
72677;BME280;60755;51.374;10.662;2023-07-13T05:15:44;97160.34;;;25.37;52.62
72677;BME280;60755;51.374;10.662;2023-07-13T05:18:11;97152.81;;;26.12;49.37
72677;BME280;60755;51.374;10.662;2023-07-13T05:20:39;97153.63;;;26.77;44.84
72677;BME280;60755;51.374;10.662;2023-07-13T05:23:06;97143.44;;;29.11;43.13
72677;BME280;60755;51.374;10.662;2023-07-13T05:25:33;97150.06;;;29.33;40.03
72677;BME280;60755;51.374;10.662;2023-07-13T05:28:00;97146.63;;;30.88;38.01
72677;BME280;60755;51.374;10.662;2023-07-13T05:30:27;97146.94;;;31.46;35.80
72677;BME280;60755;51.374;10.662;2023-07-13T05:32:54;97149.72;;;31.98;36.37
72677;BME280;60755;51.374;10.662;2023-07-13T05:35:21;97151.84;;;32.26;36.86
72677;BME280;60755;51.374;10.662;2023-07-13T05:37:49;97154.72;;;31.52;38.12
72677;BME280;60755;51.374;10.662;2023-07-13T05:40:16;97158.78;;;32.82;35.58
72677;BME280;60755;51.374;10.662;2023-07-13T05:42:44;97153.97;;;33.59;33.95
72677;BME280;60755;51.374;10.662;2023-07-13T05:45:10;97160.69;;;32.12;36.91
72677;BME280;60755;51.374;10.662;2023-07-13T05:47:37;97154.22;;;32.97;35.39
72677;BME280;60755;51.374;10.662;2023-07-13T05:50:05;97155.00;;;32.97;35.42
72677;BME280;60755;51.374;10.662;2023-07-13T05:52:33;97153.59;;;34.35;33.06
72677;BME280;60755;51.374;10.662;2023-07-13T05:55:01;97158.22;;;34.60;32.13
72677;BME280;60755;51.374;10.662;2023-07-13T05:57:29;97162.84;;;32.40;32.68
72677;BME280;60755;51.374;10.662;2023-07-13T05:59:56;97160.59;;;33.65;33.54
72677;BME280;60755;51.374;10.662;2023-07-13T06:02:23;97173.81;;;34.73;31.76
72677;BME280;60755;51.374;10.662;2023-07-13T06:04:51;97166.88;;;34.26;31.12
72677;BME280;60755;51.374;10.662;2023-07-13T06:07:18;97169.25;;;32.76;32.43
72677;BME280;60755;51.374;10.662;2023-07-13T06:09:45;97172.28;;;32.02;34.03
72677;BME280;60755;51.374;10.662;2023-07-13T06:12:13;97169.91;;;31.97;33.89
72677;BME280;60755;51.374;10.662;2023-07-13T06:14:40;97173.63;;;32.29;33.40
72677;BME280;60755;51.374;10.662;2023-07-13T06:17:07;97182.41;;;31.27;33.57
72677;BME280;60755;51.374;10.662;2023-07-13T06:19:35;97180.63;;;31.79;33.80
72677;BME280;60755;51.374;10.662;2023-07-13T06:22:02;97175.97;;;32.27;32.51
72677;BME280;60755;51.374;10.662;2023-07-13T06:24:29;97181.38;;;31.05;33.69
72677;BME280;60755;51.374;10.662;2023-07-13T06:26:56;97182.38;;;30.37;34.66
72677;BME280;60755;51.374;10.662;2023-07-13T06:29:24;97182.53;;;29.33;35.75
72677;BME280;60755;51.374;10.662;2023-07-13T06:31:51;97188.09;;;28.82;36.23
72677;BME280;60755;51.374;10.662;2023-07-13T06:34:18;97184.06;;;30.72;34.98
72677;BME280;60755;51.374;10.662;2023-07-13T06:36:45;97193.66;;;30.39;35.06
72677;BME280;60755;51.374;10.662;2023-07-13T06:39:12;97190.66;;;32.74;33.24
72677;BME280;60755;51.374;10.662;2023-07-13T06:41:39;97195.53;;;33.27;31.88
72677;BME280;60755;51.374;10.662;2023-07-13T06:44:09;97191.59;;;31.90;32.00
72677;BME280;60755;51.374;10.662;2023-07-13T06:46:39;97196.56;;;31.43;32.22
72677;BME280;60755;51.374;10.662;2023-07-13T06:49:07;97202.19;;;32.50;32.55
72677;BME280;60755;51.374;10.662;2023-07-13T06:51:35;97192.94;;;32.69;31.41
72677;BME280;60755;51.374;10.662;2023-07-13T06:54:02;97196.09;;;29.33;34.29
72677;BME280;60755;51.374;10.662;2023-07-13T06:56:29;97206.25;;;26.22;40.25
72677;BME280;60755;51.374;10.662;2023-07-13T06:59:00;97207.44;;;27.54;39.51
72677;BME280;60755;51.374;10.662;2023-07-13T07:01:27;97198.09;;;29.36;36.23
72677;BME280;60755;51.374;10.662;2023-07-13T07:03:55;97198.50;;;30.79;34.15
72677;BME280;60755;51.374;10.662;2023-07-13T07:06:23;97208.25;;;29.43;36.16
72677;BME280;60755;51.374;10.662;2023-07-13T07:08:50;97206.09;;;30.67;33.50
72677;BME280;60755;51.374;10.662;2023-07-13T07:11:19;97196.44;;;32.66;31.29
72677;BME280;60755;51.374;10.662;2023-07-13T07:13:48;97203.44;;;33.54;30.86
72677;BME280;60755;51.374;10.662;2023-07-13T07:16:15;97200.50;;;31.46;33.41
72677;BME280;60755;51.374;10.662;2023-07-13T07:18:43;97203.25;;;31.19;34.15
72677;BME280;60755;51.374;10.662;2023-07-13T07:21:11;97214.00;;;30.52;33.51
72677;BME280;60755;51.374;10.662;2023-07-13T07:23:39;97209.63;;;28.94;35.33
72677;BME280;60755;51.374;10.662;2023-07-13T07:26:06;97207.00;;;30.51;35.09
72677;BME280;60755;51.374;10.662;2023-07-13T07:28:34;97203.34;;;32.01;35.21
72677;BME280;60755;51.374;10.662;2023-07-13T07:31:01;97210.53;;;34.05;31.24
72677;BME280;60755;51.374;10.662;2023-07-13T07:33:28;97206.38;;;30.61;33.95
72677;BME280;60755;51.374;10.662;2023-07-13T07:35:55;97208.75;;;33.18;30.51
72677;BME280;60755;51.374;10.662;2023-07-13T07:38:23;97210.03;;;31.03;31.60
72677;BME280;60755;51.374;10.662;2023-07-13T07:40:51;97210.22;;;30.87;33.47
72677;BME280;60755;51.374;10.662;2023-07-13T07:43:18;97206.78;;;28.36;36.59
72677;BME280;60755;51.374;10.662;2023-07-13T07:45:46;97213.91;;;26.33;39.49
72677;BME280;60755;51.374;10.662;2023-07-13T07:48:13;97208.88;;;25.61;44.46
72677;BME280;60755;51.374;10.662;2023-07-13T07:50:40;97212.72;;;24.77;42.22
72677;BME280;60755;51.374;10.662;2023-07-13T07:53:07;97209.53;;;23.95;45.41
72677;BME280;60755;51.374;10.662;2023-07-13T07:55:37;97217.31;;;24.76;46.75
72677;BME280;60755;51.374;10.662;2023-07-13T07:58:04;97213.16;;;25.08;46.78
72677;BME280;60755;51.374;10.662;2023-07-13T08:00:31;97211.09;;;24.84;45.50
72677;BME280;60755;51.374;10.662;2023-07-13T08:02:58;97210.28;;;25.14;47.34
72677;BME280;60755;51.374;10.662;2023-07-13T08:05:25;97211.50;;;24.95;47.67
72677;BME280;60755;51.374;10.662;2023-07-13T08:07:53;97212.38;;;24.87;43.92
72677;BME280;60755;51.374;10.662;2023-07-13T08:10:20;97220.53;;;23.47;45.15
72677;BME280;60755;51.374;10.662;2023-07-13T08:12:48;97214.97;;;23.69;47.46
72677;BME280;60755;51.374;10.662;2023-07-13T08:15:16;97221.69;;;24.39;50.76
72677;BME280;60755;51.374;10.662;2023-07-13T08:17:46;97220.63;;;24.23;44.94
72677;BME280;60755;51.374;10.662;2023-07-13T08:20:14;97225.47;;;24.00;46.17
72677;BME280;60755;51.374;10.662;2023-07-13T08:22:41;97218.66;;;23.30;45.80
72677;BME280;60755;51.374;10.662;2023-07-13T08:25:08;97226.78;;;24.32;52.92
72677;BME280;60755;51.374;10.662;2023-07-13T08:27:35;97224.97;;;23.42;46.55
72677;BME280;60755;51.374;10.662;2023-07-13T08:30:05;97219.72;;;22.68;47.78
72677;BME280;60755;51.374;10.662;2023-07-13T08:32:33;97223.25;;;23.03;46.58
72677;BME280;60755;51.374;10.662;2023-07-13T08:35:00;97220.78;;;22.41;47.82
72677;BME280;60755;51.374;10.662;2023-07-13T08:37:27;97215.78;;;22.74;48.73
72677;BME280;60755;51.374;10.662;2023-07-13T08:39:54;97216.47;;;23.06;48.25
72677;BME280;60755;51.374;10.662;2023-07-13T08:42:35;97220.69;;;22.72;48.96
72677;BME280;60755;51.374;10.662;2023-07-13T08:45:11;97217.41;;;22.93;48.00
72677;BME280;60755;51.374;10.662;2023-07-13T08:47:43;97212.59;;;23.76;47.39
72677;BME280;60755;51.374;10.662;2023-07-13T08:50:14;97222.91;;;23.22;47.10
72677;BME280;60755;51.374;10.662;2023-07-13T08:52:42;97222.09;;;23.65;45.94
72677;BME280;60755;51.374;10.662;2023-07-13T08:55:13;97219.25;;;23.70;46.61
72677;BME280;60755;51.374;10.662;2023-07-13T08:57:43;97223.06;;;23.34;46.86
72677;BME280;60755;51.374;10.662;2023-07-13T09:00:14;97230.00;;;23.09;46.57
72677;BME280;60755;51.374;10.662;2023-07-13T09:02:46;97226.00;;;23.85;48.41
72677;BME280;60755;51.374;10.662;2023-07-13T09:05:24;97223.16;;;24.58;46.95
72677;BME280;60755;51.374;10.662;2023-07-13T09:08:08;97221.88;;;25.05;46.09
72677;BME280;60755;51.374;10.662;2023-07-13T09:10:43;97218.34;;;24.42;44.56
72677;BME280;60755;51.374;10.662;2023-07-13T09:13:24;97222.53;;;24.14;45.99
72677;BME280;60755;51.374;10.662;2023-07-13T09:15:56;97225.75;;;24.07;43.51
72677;BME280;60755;51.374;10.662;2023-07-13T09:18:28;97228.06;;;24.17;44.10
72677;BME280;60755;51.374;10.662;2023-07-13T09:21:02;97226.25;;;24.30;42.75
72677;BME280;60755;51.374;10.662;2023-07-13T09:23:30;97222.84;;;24.21;46.13
72677;BME280;60755;51.374;10.662;2023-07-13T09:26:02;97233.63;;;24.50;45.30
72677;BME280;60755;51.374;10.662;2023-07-13T09:28:37;97232.81;;;24.79;42.59
72677;BME280;60755;51.374;10.662;2023-07-13T09:31:09;97225.63;;;25.13;43.14
72677;BME280;60755;51.374;10.662;2023-07-13T09:33:39;97225.91;;;25.65;43.71
72677;BME280;60755;51.374;10.662;2023-07-13T09:36:18;97225.41;;;25.72;42.86
72677;BME280;60755;51.374;10.662;2023-07-13T09:38:47;97226.88;;;25.49;40.98
72677;BME280;60755;51.374;10.662;2023-07-13T09:41:21;97225.72;;;24.16;41.83
72677;BME280;60755;51.374;10.662;2023-07-13T09:44:11;97231.59;;;24.47;46.46
72677;BME280;60755;51.374;10.662;2023-07-13T09:46:44;97218.25;;;25.55;44.29
72677;BME280;60755;51.374;10.662;2023-07-13T09:49:12;97229.91;;;24.84;42.96
72677;BME280;60755;51.374;10.662;2023-07-13T09:51:41;97224.69;;;25.09;41.81
72677;BME280;60755;51.374;10.662;2023-07-13T09:54:18;97233.13;;;23.72;45.86
72677;BME280;60755;51.374;10.662;2023-07-13T09:56:45;97238.66;;;24.14;45.18
72677;BME280;60755;51.374;10.662;2023-07-13T09:59:19;97236.16;;;23.36;45.86
72677;BME280;60755;51.374;10.662;2023-07-13T10:01:47;97243.56;;;23.65;46.86
72677;BME280;60755;51.374;10.662;2023-07-13T10:04:17;97247.19;;;23.52;46.62
72677;BME280;60755;51.374;10.662;2023-07-13T10:06:45;97239.69;;;24.30;46.55
72677;BME280;60755;51.374;10.662;2023-07-13T10:09:15;97245.34;;;25.17;45.01
72677;BME280;60755;51.374;10.662;2023-07-13T10:11:45;97241.59;;;24.29;43.88
72677;BME280;60755;51.374;10.662;2023-07-13T10:14:14;97241.34;;;23.50;45.88
72677;BME280;60755;51.374;10.662;2023-07-13T10:16:43;97244.47;;;23.78;45.44
72677;BME280;60755;51.374;10.662;2023-07-13T10:19:15;97256.34;;;23.59;45.32
72677;BME280;60755;51.374;10.662;2023-07-13T10:21:50;97250.19;;;23.41;44.67
72677;BME280;60755;51.374;10.662;2023-07-13T10:24:22;97246.28;;;23.04;44.29
72677;BME280;60755;51.374;10.662;2023-07-13T10:26:53;97249.59;;;23.19;46.56
72677;BME280;60755;51.374;10.662;2023-07-13T10:29:24;97247.66;;;23.02;45.64
72677;BME280;60755;51.374;10.662;2023-07-13T10:31:53;97251.09;;;23.80;45.78
72677;BME280;60755;51.374;10.662;2023-07-13T10:34:22;97252.53;;;24.33;45.44
72677;BME280;60755;51.374;10.662;2023-07-13T10:36:52;97262.13;;;24.93;45.55
72677;BME280;60755;51.374;10.662;2023-07-13T10:39:20;97262.13;;;24.93;43.10
72677;BME280;60755;51.374;10.662;2023-07-13T10:41:53;97250.66;;;24.84;43.74
72677;BME280;60755;51.374;10.662;2023-07-13T10:44:24;97258.81;;;25.17;43.11
72677;BME280;60755;51.374;10.662;2023-07-13T10:46:58;97249.94;;;24.07;42.87
72677;BME280;60755;51.374;10.662;2023-07-13T10:49:29;97265.88;;;24.50;43.93
72677;BME280;60755;51.374;10.662;2023-07-13T10:51:57;97259.63;;;23.91;43.82
72677;BME280;60755;51.374;10.662;2023-07-13T10:54:31;97257.25;;;23.81;44.20
72677;BME280;60755;51.374;10.662;2023-07-13T10:57:14;97260.06;;;24.69;45.99
72677;BME280;60755;51.374;10.662;2023-07-13T10:59:43;97255.84;;;25.10;41.75
72677;BME280;60755;51.374;10.662;2023-07-13T11:02:22;97253.84;;;24.77;45.05
72677;BME280;60755;51.374;10.662;2023-07-13T11:04:52;97260.72;;;24.66;45.21
72677;BME280;60755;51.374;10.662;2023-07-13T11:07:22;97262.69;;;24.78;44.42
72677;BME280;60755;51.374;10.662;2023-07-13T11:09:51;97264.97;;;24.97;42.03
72677;BME280;60755;51.374;10.662;2023-07-13T11:12:49;97265.34;;;26.15;41.75
72677;BME280;60755;51.374;10.662;2023-07-13T11:15:29;97257.00;;;26.20;42.14
72677;BME280;60755;51.374;10.662;2023-07-13T11:17:57;97266.38;;;24.94;41.17
72677;BME280;60755;51.374;10.662;2023-07-13T11:20:38;97260.00;;;25.07;41.19
72677;BME280;60755;51.374;10.662;2023-07-13T11:23:26;97261.06;;;25.15;43.36
72677;BME280;60755;51.374;10.662;2023-07-13T11:25:54;97260.84;;;25.74;43.50
72677;BME280;60755;51.374;10.662;2023-07-13T11:28:24;97256.97;;;25.63;42.30
72677;BME280;60755;51.374;10.662;2023-07-13T11:31:03;97262.84;;;24.81;41.53
72677;BME280;60755;51.374;10.662;2023-07-13T11:33:51;97250.63;;;24.34;42.48
72677;BME280;60755;51.374;10.662;2023-07-13T11:36:22;97254.94;;;24.17;42.62
72677;BME280;60755;51.374;10.662;2023-07-13T11:38:58;97249.41;;;24.14;43.09
72677;BME280;60755;51.374;10.662;2023-07-13T11:41:27;97252.56;;;23.52;43.47
72677;BME280;60755;51.374;10.662;2023-07-13T11:44:01;97249.09;;;23.68;44.47
72677;BME280;60755;51.374;10.662;2023-07-13T11:46:31;97258.75;;;24.54;44.41
72677;BME280;60755;51.374;10.662;2023-07-13T11:48:57;97260.38;;;25.39;43.28
72677;BME280;60755;51.374;10.662;2023-07-13T11:51:28;97248.66;;;25.89;42.97
72677;BME280;60755;51.374;10.662;2023-07-13T11:53:58;97255.59;;;26.47;42.42
72677;BME280;60755;51.374;10.662;2023-07-13T11:56:27;97252.66;;;25.50;41.33
72677;BME280;60755;51.374;10.662;2023-07-13T11:58:56;97254.06;;;24.93;42.85
72677;BME280;60755;51.374;10.662;2023-07-13T12:01:26;97248.09;;;25.83;43.56
72677;BME280;60755;51.374;10.662;2023-07-13T12:03:55;97259.41;;;25.44;41.86
72677;BME280;60755;51.374;10.662;2023-07-13T12:06:27;97261.66;;;24.91;42.25
72677;BME280;60755;51.374;10.662;2023-07-13T12:08:58;97255.78;;;24.98;41.87
72677;BME280;60755;51.374;10.662;2023-07-13T12:11:27;97256.31;;;24.32;43.47
72677;BME280;60755;51.374;10.662;2023-07-13T12:13:54;97243.25;;;24.51;43.07
72677;BME280;60755;51.374;10.662;2023-07-13T12:16:27;97257.06;;;24.71;45.05
72677;BME280;60755;51.374;10.662;2023-07-13T12:18:55;97255.50;;;24.40;43.98
72677;BME280;60755;51.374;10.662;2023-07-13T12:21:30;97257.56;;;24.35;43.89
72677;BME280;60755;51.374;10.662;2023-07-13T12:23:58;97261.00;;;24.44;43.69
72677;BME280;60755;51.374;10.662;2023-07-13T12:26:28;97259.88;;;24.45;43.93
72677;BME280;60755;51.374;10.662;2023-07-13T12:28:58;97250.94;;;24.32;42.70
72677;BME280;60755;51.374;10.662;2023-07-13T12:31:31;97255.63;;;24.73;43.74
72677;BME280;60755;51.374;10.662;2023-07-13T12:34:00;97253.44;;;25.50;44.14
72677;BME280;60755;51.374;10.662;2023-07-13T12:36:32;97252.63;;;26.04;42.79
72677;BME280;60755;51.374;10.662;2023-07-13T12:39:04;97255.28;;;25.58;40.34
72677;BME280;60755;51.374;10.662;2023-07-13T12:41:32;97265.00;;;25.72;39.10
72677;BME280;60755;51.374;10.662;2023-07-13T12:44:00;97254.84;;;24.73;40.76
72677;BME280;60755;51.374;10.662;2023-07-13T12:46:27;97254.44;;;24.83;42.55
72677;BME280;60755;51.374;10.662;2023-07-13T12:48:57;97254.31;;;25.00;42.15
72677;BME280;60755;51.374;10.662;2023-07-13T12:51:26;97255.63;;;24.94;42.74
72677;BME280;60755;51.374;10.662;2023-07-13T12:54:11;97255.88;;;23.31;44.30
72677;BME280;60755;51.374;10.662;2023-07-13T12:56:39;97256.81;;;23.01;45.70
72677;BME280;60755;51.374;10.662;2023-07-13T12:59:15;97264.00;;;23.95;45.64
72677;BME280;60755;51.374;10.662;2023-07-13T13:01:43;97257.09;;;23.86;44.50